createdAt,value
2017-10-07T22:42:54.284Z,11.18
2017-10-07T22:43:34.802Z,11.24
2017-10-07T22:44:15.348Z,11.25
2017-10-07T22:44:55.879Z,11.21
2017-10-07T22:45:36.388Z,11.19
2017-10-07T22:46:16.900Z,11.17
2017-10-07T22:46:57.432Z,11.21
2017-10-07T22:47:37.969Z,11.22
2017-10-07T22:48:18.511Z,11.27
2017-10-07T22:48:59.040Z,11.21
2017-10-07T22:49:39.568Z,11.18
2017-10-07T22:50:20.085Z,11.22
2017-10-07T22:51:00.620Z,11.21
2017-10-07T22:51:41.141Z,11.19
2017-10-07T22:52:21.676Z,11.18
2017-10-07T22:53:02.204Z,11.24
2017-10-07T22:53:42.734Z,11.25
2017-10-07T22:54:23.260Z,11.24
2017-10-07T22:55:03.779Z,11.27
2017-10-07T22:55:44.301Z,11.25
2017-10-07T22:56:24.836Z,11.32
2017-10-07T22:57:05.383Z,11.27
2017-10-07T22:57:45.924Z,11.28
2017-10-07T22:58:26.461Z,11.29
2017-10-07T22:59:06.989Z,11.25
2017-10-07T22:59:47.514Z,11.29
2017-10-07T23:00:28.051Z,11.25
2017-10-07T23:01:08.588Z,11.24
2017-10-07T23:01:49.113Z,11.28
2017-10-07T23:02:29.648Z,11.28
2017-10-07T23:03:10.173Z,11.32
2017-10-07T23:03:50.710Z,11.28
2017-10-07T23:04:31.231Z,11.25
2017-10-07T23:05:11.760Z,11.35
2017-10-07T23:05:52.286Z,11.4
2017-10-07T23:06:32.810Z,11.22
2017-10-07T23:07:13.342Z,11.35
2017-10-07T23:07:53.881Z,11.29
2017-10-07T23:08:34.403Z,11.35
2017-10-07T23:09:14.963Z,11.29
2017-10-07T23:09:55.490Z,11.28
2017-10-07T23:10:36.028Z,11.29
2017-10-07T23:11:16.558Z,11.29
2017-10-07T23:11:57.094Z,11.36
2017-10-07T23:12:37.620Z,11.37
2017-10-07T23:13:18.156Z,11.28
2017-10-07T23:13:58.698Z,11.35
2017-10-07T23:14:39.227Z,11.37
2017-10-07T23:15:19.747Z,11.39
2017-10-07T23:16:00.283Z,11.29
2017-10-07T23:16:40.828Z,11.32
2017-10-07T23:17:21.367Z,11.29
2017-10-07T23:18:01.889Z,11.35
2017-10-07T23:18:42.419Z,11.32
2017-10-07T23:19:22.952Z,11.36
2017-10-07T23:20:03.466Z,11.36
2017-10-07T23:20:43.979Z,11.35
2017-10-07T23:21:24.497Z,11.39
2017-10-07T23:22:05.020Z,11.33
2017-10-07T23:22:45.604Z,11.44
2017-10-07T23:23:26.125Z,11.36
2017-10-07T23:24:06.673Z,11.39
2017-10-07T23:24:47.199Z,11.39
2017-10-07T23:25:27.717Z,11.39
2017-10-07T23:26:08.252Z,11.39
2017-10-07T23:26:48.761Z,11.42
2017-10-07T23:27:29.306Z,11.4
2017-10-07T23:28:09.830Z,11.37
2017-10-07T23:28:50.346Z,11.4
2017-10-07T23:29:30.870Z,11.47
2017-10-07T23:30:11.386Z,11.39
2017-10-07T23:30:51.911Z,11.4
2017-10-07T23:31:32.474Z,11.44
2017-10-07T23:32:13.024Z,11.4
2017-10-07T23:32:53.548Z,11.37
2017-10-07T23:33:34.086Z,11.39
2017-10-07T23:34:14.613Z,11.42
2017-10-07T23:34:55.146Z,11.43
2017-10-07T23:35:35.701Z,11.42
2017-10-07T23:36:16.220Z,11.4
2017-10-07T23:36:56.763Z,11.4
2017-10-07T23:37:37.351Z,11.4
2017-10-07T23:38:17.861Z,11.42
2017-10-07T23:38:58.403Z,11.46
2017-10-07T23:39:38.945Z,11.37
2017-10-07T23:40:19.481Z,11.44
2017-10-07T23:41:00.012Z,11.43
2017-10-07T23:41:40.536Z,11.39
2017-10-07T23:42:21.066Z,11.39
2017-10-07T23:43:01.597Z,11.37
2017-10-07T23:43:42.134Z,11.47
2017-10-07T23:44:22.672Z,11.42
2017-10-07T23:45:03.199Z,11.39
2017-10-07T23:45:43.736Z,11.43
2017-10-07T23:46:24.271Z,11.42
2017-10-07T23:47:04.789Z,11.4
2017-10-07T23:47:45.324Z,11.4
2017-10-07T23:48:25.861Z,11.52
2017-10-07T23:49:06.390Z,11.36
2017-10-07T23:49:46.919Z,11.55
2017-10-07T23:50:27.450Z,11.49
2017-10-07T23:51:07.989Z,11.52
2017-10-07T23:51:48.534Z,11.49
2017-10-07T23:52:29.065Z,11.57
2017-10-07T23:53:09.592Z,11.54
2017-10-07T23:53:50.123Z,11.49
2017-10-07T23:54:30.665Z,11.52
2017-10-07T23:55:11.192Z,11.51
2017-10-07T23:55:51.729Z,11.55
2017-10-07T23:56:32.262Z,11.47
2017-10-07T23:57:12.792Z,11.49
2017-10-07T23:57:53.350Z,11.52
2017-10-07T23:58:33.877Z,11.54
2017-10-07T23:59:14.416Z,11.55
2017-10-07T23:59:54.945Z,11.55
